Terminal Aerodrome Forecast
Issued by NWS

Home | Current Version | Previous Version | Text Only | Print | Product List | Glossary On
Versions: 1 2 3 4 5 6 7 8 9 10 11 12 13 14 15 16 17 18 19 20 21 22 23 24 25 26 27
000
FTUS43 KTOP 242300
TAFFOE
TAF
KFOE 242326Z 2500/2524 20005KT P6SM SCT250
     FM250600 27003KT 5SM BR SKC
     FM250900 VRB02KT 2SM BR SKC
      TEMPO 2509/2512 1/2SM FG
     FM251500 05005KT P6SM SKC=

USA.gov is the U.S. government's official web portal to all federal, state and local government web resources and services.